Eastern Iowa Airport (CID)


Airport Diagram
Current Weather/Forecast (VFR Conditions)
METAR KCID 260052Z 32004KT 9SM CLR 26/19 A2996 RMK AO2 SLP140 T02610189 $
TAF KCID 252330Z 2600/2624 34006KT P6SM BKN200 FM260300 VRB03KT P6SM SCT250 FM261700 20007KT P6SM SCT250

All Charts
General
Chart Name Download
AIRPORT DIAGRAM
TAKEOFF MINIMUMS
ALTERNATE MINIMUMS
HOT SPOT

Approaches
Chart Name Download
ILS OR LOC RWY 09
ILS OR LOC RWY 27
RNAV (GPS) RWY 09
RNAV (GPS) RWY 13
RNAV (GPS) RWY 27
RNAV (GPS) RWY 31